Time;durP1;ratioP1;P1;durP2;ratioP2;P2;SDS_P1;SDS_P2;PMS_P1;PMS_P2;Temp;Humidity;BMP_temperature;BMP_pressure;BME280_temperature;BME280_humidity;BME280_pressure;Samples;Min_cycle;Max_cycle;Signal;HPM_P1;HPM_P2
2020/12/12 00:02:03;;;;;;;;;;;1.40;99.90;;;;;;5115329;28;19969;-71
2020/12/12 00:04:30;;;;;;;;;;;1.40;99.90;;;;;;5115347;28;19936;-70
2020/12/12 00:06:58;;;;;;;;;;;1.40;99.90;;;;;;5115859;28;20359;-70
2020/12/12 00:09:25;;;;;;;;;;;1.40;99.90;;;;;;5115120;28;19924;-70
2020/12/12 00:11:52;;;;;;;;;;;1.40;99.90;;;;;;5094828;28;19935;-71
2020/12/12 00:14:18;;;;;;;;;;;1.30;99.90;;;;;;5095127;28;20342;-70
2020/12/12 00:16:44;;;;;;;;;;;1.30;99.90;;;;;;5095100;28;19924;-70
2020/12/12 00:19:10;;;;;;;;;;;1.30;99.90;;;;;;5095091;28;19969;-70
2020/12/12 00:21:36;;;;;;;;;;;1.30;99.90;;;;;;5103456;28;19924;-70
2020/12/12 00:24:02;;;;;;;;;;;1.30;99.90;;;;;;5094825;28;19924;-70
2020/12/12 00:26:28;;;;;;;;;;;1.30;99.90;;;;;;5094674;28;20567;-70
2020/12/12 00:28:55;;;;;;;;;;;1.20;99.90;;;;;;5094994;28;19930;-71
2020/12/12 00:31:21;;;;;;;;;;;1.30;99.90;;;;;;5094723;28;19981;-71
2020/12/12 00:33:47;;;;;;;;;;;1.30;99.90;;;;;;5094315;28;20301;-71
2020/12/12 00:36:14;;;;;;;;;;;1.30;99.90;;;;;;5094543;28;20372;-71
2020/12/12 00:38:40;;;;;;;;;;;1.30;99.90;;;;;;5094691;28;19935;-71
2020/12/12 00:41:06;;;;;;;;;;;1.30;99.90;;;;;;5094456;28;19924;-71
2020/12/12 00:43:32;;;;;;;;;;;1.30;99.90;;;;;;5095999;28;19925;-70
2020/12/12 00:45:59;;;;;;;;;;;1.30;99.90;;;;;;5094562;28;19977;-71
2020/12/12 00:48:26;;;;;;;;;;;1.20;99.90;;;;;;5099692;28;21301;-72
2020/12/12 00:50:52;;;;;;;;;;;1.20;99.90;;;;;;5114144;28;20326;-72
2020/12/12 00:53:18;;;;;;;;;;;1.20;99.90;;;;;;5114591;27;19924;-71
2020/12/12 00:55:44;;;;;;;;;;;1.10;99.90;;;;;;5114239;28;20013;-71
2020/12/12 00:58:10;;;;;;;;;;;1.10;99.90;;;;;;5110453;28;19983;-72
2020/12/12 01:00:36;;;;;;;;;;;1.00;99.90;;;;;;5094292;28;19924;-72
2020/12/12 01:03:03;;;;;;;;;;;0.90;99.90;;;;;;5100419;28;19927;-71
2020/12/12 01:05:31;;;;;;;;;;;0.80;99.90;;;;;;5114579;28;19931;-72
2020/12/12 01:07:57;;;;;;;;;;;0.80;99.90;;;;;;5114363;28;19930;-72
2020/12/12 01:10:23;;;;;;;;;;;0.80;99.90;;;;;;5113990;28;19924;-72
2020/12/12 01:12:50;;;;;;;;;;;0.70;99.90;;;;;;5094146;28;19931;-71
2020/12/12 01:15:16;;;;;;;;;;;0.70;99.90;;;;;;5101255;28;20441;-72
2020/12/12 01:17:42;;;;;;;;;;;0.60;99.90;;;;;;5100400;28;19924;-71
2020/12/12 01:20:09;;;;;;;;;;;0.60;99.90;;;;;;5093754;28;19939;-72
2020/12/12 01:22:35;;;;;;;;;;;0.60;99.90;;;;;;5093520;28;20438;-71
2020/12/12 01:25:01;;;;;;;;;;;0.50;99.90;;;;;;5093692;28;19973;-71
2020/12/12 01:27:27;;;;;;;;;;;0.50;99.90;;;;;;5093869;28;19928;-72
2020/12/12 01:29:53;;;;;;;;;;;0.40;99.90;;;;;;5093586;28;20296;-72
2020/12/12 01:32:19;;;;;;;;;;;0.40;99.90;;;;;;5093428;28;19930;-72
2020/12/12 01:34:45;;;;;;;;;;;0.40;99.90;;;;;;5093546;28;20381;-72
2020/12/12 01:37:12;;;;;;;;;;;0.40;99.90;;;;;;5093603;28;19928;-72
2020/12/12 01:39:38;;;;;;;;;;;0.50;99.90;;;;;;5093425;28;19924;-71
2020/12/12 01:42:04;;;;;;;;;;;0.50;99.90;;;;;;5093277;28;20316;-71
2020/12/12 01:44:30;;;;;;;;;;;0.50;99.90;;;;;;5095090;28;19949;-71
2020/12/12 01:46:57;;;;;;;;;;;0.50;99.90;;;;;;5101013;27;19924;-71
2020/12/12 01:49:24;;;;;;;;;;;0.40;99.90;;;;;;5093327;28;19977;-70
2020/12/12 01:51:50;;;;;;;;;;;0.40;99.90;;;;;;5092812;28;19954;-71
2020/12/12 01:54:17;;;;;;;;;;;0.50;99.90;;;;;;5093221;28;20372;-71
2020/12/12 01:56:43;;;;;;;;;;;0.40;99.90;;;;;;5105740;28;20334;-71
2020/12/12 01:59:09;;;;;;;;;;;0.40;99.90;;;;;;5103373;28;19977;-71
2020/12/12 02:01:38;;;;;;;;;;;0.40;99.90;;;;;;5091862;28;19931;-71
2020/12/12 02:04:05;;;;;;;;;;;0.30;99.90;;;;;;5092750;28;19924;-71
2020/12/12 02:06:31;;;;;;;;;;;0.30;99.90;;;;;;5092926;28;19928;-72
2020/12/12 02:08:57;;;;;;;;;;;0.30;99.90;;;;;;5093265;28;19924;-71
2020/12/12 02:11:24;;;;;;;;;;;0.30;99.90;;;;;;5092945;28;19924;-71
2020/12/12 02:13:50;;;;;;;;;;;0.30;99.90;;;;;;5101596;28;20364;-71
2020/12/12 02:16:17;;;;;;;;;;;0.20;99.90;;;;;;5099498;28;19923;-71
2020/12/12 02:18:43;;;;;;;;;;;0.30;99.90;;;;;;5108604;28;19954;-71
2020/12/12 02:21:09;;;;;;;;;;;0.20;99.90;;;;;;5103235;28;19978;-71
2020/12/12 02:23:36;;;;;;;;;;;0.30;99.90;;;;;;5112427;28;19923;-71
2020/12/12 02:26:02;;;;;;;;;;;0.30;99.90;;;;;;5112922;28;19923;-71
2020/12/12 02:28:33;;;;;;;;;;;0.30;99.90;;;;;;5112906;28;20342;-71
2020/12/12 02:30:59;;;;;;;;;;;0.30;99.90;;;;;;5112985;28;19967;-71
2020/12/12 02:33:25;;;;;;;;;;;0.30;99.90;;;;;;5112817;28;19924;-72
2020/12/12 02:35:51;;;;;;;;;;;0.30;99.90;;;;;;5112639;28;20376;-72
2020/12/12 02:38:17;;;;;;;;;;;0.30;99.90;;;;;;5112896;28;19927;-70
2020/12/12 02:40:44;;;;;;;;;;;0.30;99.90;;;;;;5112461;28;19924;-71
2020/12/12 02:43:11;;;;;;;;;;;0.20;99.90;;;;;;5094557;28;20020;-70
2020/12/12 02:45:38;;;;;;;;;;;0.30;99.90;;;;;;5093530;28;19959;-70
2020/12/12 02:48:04;;;;;;;;;;;0.30;99.90;;;;;;5091714;28;19928;-72
2020/12/12 02:50:30;;;;;;;;;;;0.30;99.90;;;;;;5092454;28;19925;-72
2020/12/12 02:52:56;;;;;;;;;;;0.30;99.90;;;;;;5092162;28;19949;-71
2020/12/12 02:55:22;;;;;;;;;;;0.30;99.90;;;;;;5092286;28;19928;-71
2020/12/12 02:57:49;;;;;;;;;;;0.20;99.90;;;;;;5092190;28;20011;-71
2020/12/12 03:00:16;;;;;;;;;;;0.20;99.90;;;;;;5103201;28;20314;-71
2020/12/12 03:02:42;;;;;;;;;;;0.20;99.90;;;;;;5112422;28;19924;-71
2020/12/12 03:05:08;;;;;;;;;;;0.20;99.90;;;;;;5112469;28;20292;-72
2020/12/12 03:07:34;;;;;;;;;;;0.20;99.90;;;;;;5112626;28;19927;-70
2020/12/12 03:10:04;;;;;;;;;;;0.20;99.90;;;;;;5106834;28;20389;-71
2020/12/12 03:12:30;;;;;;;;;;;0.20;99.90;;;;;;5091984;28;19924;-71
2020/12/12 03:14:57;;;;;;;;;;;0.20;99.90;;;;;;5092438;28;19938;-71
2020/12/12 03:17:23;;;;;;;;;;;0.20;99.90;;;;;;5092488;28;19965;-71
2020/12/12 03:19:49;;;;;;;;;;;0.20;99.90;;;;;;5092175;28;19924;-72
2020/12/12 03:22:15;;;;;;;;;;;0.20;99.90;;;;;;5106655;28;20302;-72
2020/12/12 03:24:41;;;;;;;;;;;0.20;99.90;;;;;;5112024;28;19935;-72
2020/12/12 03:27:07;;;;;;;;;;;0.30;99.90;;;;;;5112165;28;19934;-72
2020/12/12 03:29:37;;;;;;;;;;;0.30;99.90;;;;;;5112330;28;19969;-70
2020/12/12 03:32:04;;;;;;;;;;;0.30;99.90;;;;;;5116302;28;19927;-71
2020/12/12 03:34:30;;;;;;;;;;;0.20;99.90;;;;;;5116339;28;19992;-71
2020/12/12 03:36:56;;;;;;;;;;;0.30;99.90;;;;;;5103505;28;20381;-71
2020/12/12 03:39:21;;;;;;;;;;;0.30;99.90;;;;;;5109702;28;19927;-72
2020/12/12 03:41:50;;;;;;;;;;;0.30;99.90;;;;;;5115809;28;19924;-71
2020/12/12 03:44:16;;;;;;;;;;;0.30;99.90;;;;;;5114335;28;20430;-72
2020/12/12 03:46:42;;;;;;;;;;;0.40;99.90;;;;;;5105182;28;19925;-71
2020/12/12 03:49:09;;;;;;;;;;;0.40;99.90;;;;;;5095712;28;20381;-72
2020/12/12 03:51:35;;;;;;;;;;;0.30;99.90;;;;;;5114000;28;19976;-71
2020/12/12 03:54:01;;;;;;;;;;;0.30;99.90;;;;;;5095923;28;19931;-72
2020/12/12 03:56:27;;;;;;;;;;;0.30;99.90;;;;;;5095731;28;19982;-71
2020/12/12 03:58:53;;;;;;;;;;;0.30;99.90;;;;;;5095615;28;19931;-71
2020/12/12 04:01:19;;;;;;;;;;;0.20;99.90;;;;;;5110747;28;20368;-71
2020/12/12 04:03:45;;;;;;;;;;;0.20;99.90;;;;;;5113786;28;19981;-71
2020/12/12 04:06:12;;;;;;;;;;;0.30;99.90;;;;;;5097778;28;19928;-70
2020/12/12 04:08:38;;;;;;;;;;;0.20;99.90;;;;;;5095321;28;19924;-71
2020/12/12 04:11:04;;;;;;;;;;;0.30;99.90;;;;;;5100342;28;20379;-71
2020/12/12 04:13:30;;;;;;;;;;;0.30;99.90;;;;;;5115534;28;20108;-71
2020/12/12 04:15:56;;;;;;;;;;;0.30;99.90;;;;;;5115527;28;19993;-71
2020/12/12 04:18:23;;;;;;;;;;;0.20;99.90;;;;;;5115209;28;19969;-71
2020/12/12 04:20:49;;;;;;;;;;;0.20;99.90;;;;;;5097644;28;19993;-71
2020/12/12 04:23:15;;;;;;;;;;;0.20;99.90;;;;;;5094659;28;19928;-71
2020/12/12 04:25:41;;;;;;;;;;;0.20;99.90;;;;;;5095293;28;19977;-70
2020/12/12 04:28:07;;;;;;;;;;;0.20;99.90;;;;;;5095215;28;19924;-70
2020/12/12 04:30:34;;;;;;;;;;;0.20;99.90;;;;;;5105856;28;20403;-71
2020/12/12 04:33:00;;;;;;;;;;;0.20;99.90;;;;;;5094774;28;19924;-70
2020/12/12 04:35:26;;;;;;;;;;;0.20;99.90;;;;;;5104520;28;19967;-70
2020/12/12 04:37:52;;;;;;;;;;;0.30;99.90;;;;;;5094797;28;19950;-72
2020/12/12 04:40:19;;;;;;;;;;;0.30;99.90;;;;;;5094783;28;19924;-71
2020/12/12 04:42:46;;;;;;;;;;;0.30;99.90;;;;;;5094012;28;19924;-71
2020/12/12 04:45:12;;;;;;;;;;;0.30;99.90;;;;;;5094700;28;19924;-71
2020/12/12 04:47:43;;;;;;;;;;;0.30;99.90;;;;;;5094657;28;19924;-71
2020/12/12 04:50:09;;;;;;;;;;;0.40;99.90;;;;;;5094450;28;19928;-71
2020/12/12 04:52:35;;;;;;;;;;;0.30;99.90;;;;;;5095666;28;19977;-71
2020/12/12 04:55:05;;;;;;;;;;;0.40;99.90;;;;;;5094596;28;19924;-71
2020/12/12 04:57:33;;;;;;;;;;;0.50;99.90;;;;;;5094663;28;20095;-71
2020/12/12 05:00:00;;;;;;;;;;;0.50;99.90;;;;;;5101469;28;19932;-70
2020/12/12 05:02:26;;;;;;;;;;;0.60;99.90;;;;;;5107655;28;19924;-71
2020/12/12 05:04:52;;;;;;;;;;;0.60;99.90;;;;;;5094086;28;20342;-71
2020/12/12 05:07:18;;;;;;;;;;;0.60;99.90;;;;;;5094394;28;19924;-71
2020/12/12 05:09:44;;;;;;;;;;;0.60;99.90;;;;;;5094428;28;19924;-71
2020/12/12 05:12:13;;;;;;;;;;;0.60;99.90;;;;;;5093707;28;19924;-71
2020/12/12 05:14:39;;;;;;;;;;;0.60;99.90;;;;;;5093946;28;20397;-71
2020/12/12 05:17:08;;;;;;;;;;;0.70;99.90;;;;;;5094005;28;19924;-71
2020/12/12 05:19:34;;;;;;;;;;;0.70;99.90;;;;;;5093822;28;19928;-71
2020/12/12 05:22:02;;;;;;;;;;;0.80;99.90;;;;;;5079543;28;19928;-71
2020/12/12 05:24:28;;;;;;;;;;;0.70;99.90;;;;;;5073722;28;20344;-71
2020/12/12 05:26:58;;;;;;;;;;;0.80;99.90;;;;;;5086350;28;20338;-71
2020/12/12 05:29:24;;;;;;;;;;;0.80;99.90;;;;;;5093933;28;19924;-71
2020/12/12 05:31:53;;;;;;;;;;;0.80;99.90;;;;;;5108087;28;20395;-71
2020/12/12 05:34:19;;;;;;;;;;;0.80;99.90;;;;;;5113942;28;20449;-72
2020/12/12 05:36:45;;;;;;;;;;;0.80;99.90;;;;;;5094688;28;19924;-72
2020/12/12 05:39:12;;;;;;;;;;;0.70;99.90;;;;;;5106149;28;20376;-71
2020/12/12 05:41:38;;;;;;;;;;;0.70;99.90;;;;;;5113461;28;19924;-70
2020/12/12 05:44:04;;;;;;;;;;;0.70;99.90;;;;;;5113675;28;20274;-71
2020/12/12 05:46:31;;;;;;;;;;;0.60;99.90;;;;;;5104506;28;19924;-70
2020/12/12 05:48:58;;;;;;;;;;;0.60;99.90;;;;;;5093381;28;19928;-71
2020/12/12 05:51:26;;;;;;;;;;;0.50;99.90;;;;;;5101089;28;19924;-71
2020/12/12 05:53:52;;;;;;;;;;;0.50;99.90;;;;;;5112022;28;19928;-71
2020/12/12 05:56:18;;;;;;;;;;;0.50;99.90;;;;;;5113528;28;19938;-71
2020/12/12 05:58:46;;;;;;;;;;;0.40;99.90;;;;;;5114084;28;19924;-72
2020/12/12 06:01:16;;;;;;;;;;;0.30;99.90;;;;;;5103805;28;19928;-71
2020/12/12 06:03:44;;;;;;;;;;;0.30;99.90;;;;;;5092966;28;19928;-71
2020/12/12 06:06:13;;;;;;;;;;;0.30;99.90;;;;;;5094443;28;19959;-71
2020/12/12 06:08:39;;;;;;;;;;;0.30;99.90;;;;;;5095176;28;19924;-71
2020/12/12 06:11:05;;;;;;;;;;;0.20;99.90;;;;;;5092939;28;19961;-71
2020/12/12 06:13:33;;;;;;;;;;;0.20;99.90;;;;;;5092635;28;19970;-71
2020/12/12 06:16:02;;;;;;;;;;;0.30;99.90;;;;;;5093048;28;19924;-71
2020/12/12 06:18:36;;;;;;;;;;;0.30;99.90;;;;;;5092962;28;20339;-71
2020/12/12 06:21:06;;;;;;;;;;;0.30;99.90;;;;;;5093983;28;19927;-70
2020/12/12 06:23:34;;;;;;;;;;;0.30;99.90;;;;;;5092481;28;19931;-71
2020/12/12 06:26:00;;;;;;;;;;;0.30;99.90;;;;;;5110401;28;19969;-71
2020/12/12 06:28:28;;;;;;;;;;;0.20;99.90;;;;;;5113097;28;19949;-71
2020/12/12 06:30:55;;;;;;;;;;;0.20;99.90;;;;;;5112849;28;19977;-70
2020/12/12 06:33:21;;;;;;;;;;;0.30;99.90;;;;;;5112050;28;20638;-70
2020/12/12 06:35:47;;;;;;;;;;;0.20;99.90;;;;;;5100349;28;19924;-71
2020/12/12 06:38:20;;;;;;;;;;;0.20;99.90;;;;;;5093767;28;19924;-71
2020/12/12 06:40:48;;;;;;;;;;;0.30;99.90;;;;;;5092372;28;20384;-71
2020/12/12 06:43:32;;;;;;;;;;;0.20;99.90;;;;;;5092241;28;19931;-71
2020/12/12 06:45:59;;;;;;;;;;;0.20;99.90;;;;;;5092436;28;19924;-71
2020/12/12 06:48:26;;;;;;;;;;;0.20;99.90;;;;;;5092612;28;19924;-71
2020/12/12 06:50:52;;;;;;;;;;;0.30;99.90;;;;;;5106879;28;19957;-71
2020/12/12 06:53:18;;;;;;;;;;;0.20;99.90;;;;;;5112528;28;19928;-70
2020/12/12 06:55:44;;;;;;;;;;;0.20;99.90;;;;;;5112601;28;20064;-71
2020/12/12 06:58:22;;;;;;;;;;;0.20;99.90;;;;;;5112719;28;19931;-71
2020/12/12 07:00:48;;;;;;;;;;;0.20;99.90;;;;;;5107618;28;20361;-70
2020/12/12 07:03:20;;;;;;;;;;;0.20;99.90;;;;;;5096662;28;19924;-71
2020/12/12 07:05:46;;;;;;;;;;;0.20;99.90;;;;;;5114885;28;19927;-71
2020/12/12 07:08:12;;;;;;;;;;;0.20;99.90;;;;;;5117209;28;19935;-71
2020/12/12 07:10:40;;;;;;;;;;;0.30;99.90;;;;;;5116610;28;19923;-70
2020/12/12 07:13:06;;;;;;;;;;;0.30;99.90;;;;;;5116477;28;20388;-70
2020/12/12 07:15:33;;;;;;;;;;;0.30;99.90;;;;;;5116566;28;19935;-70
2020/12/12 07:18:01;;;;;;;;;;;0.30;99.90;;;;;;5116562;28;19968;-70
2020/12/12 07:20:31;;;;;;;;;;;0.30;99.90;;;;;;5116513;28;19989;-70
2020/12/12 07:22:57;;;;;;;;;;;0.30;99.90;;;;;;5116640;28;19924;-71
2020/12/12 07:25:23;;;;;;;;;;;0.30;99.90;;;;;;5116653;28;19934;-71
2020/12/12 07:27:49;;;;;;;;;;;0.40;99.90;;;;;;5116080;28;19931;-72
2020/12/12 07:30:15;;;;;;;;;;;0.40;99.90;;;;;;5116167;28;19930;-72
2020/12/12 07:32:41;;;;;;;;;;;0.40;99.90;;;;;;5111578;28;20308;-72
2020/12/12 07:35:10;;;;;;;;;;;0.50;99.90;;;;;;5116556;28;19923;-70
2020/12/12 07:37:36;;;;;;;;;;;0.50;99.90;;;;;;5114825;28;19962;-70
2020/12/12 07:40:03;;;;;;;;;;;0.50;99.90;;;;;;5075611;28;19929;-71
2020/12/12 07:42:32;;;;;;;;;;;0.60;99.90;;;;;;5095014;28;19986;-71
2020/12/12 07:45:07;;;;;;;;;;;0.60;99.90;;;;;;5095674;28;19924;-71
2020/12/12 07:47:33;;;;;;;;;;;0.60;99.90;;;;;;5114145;28;19923;-71
2020/12/12 07:50:03;;;;;;;;;;;0.70;99.90;;;;;;5116156;28;19924;-71
2020/12/12 07:52:32;;;;;;;;;;;0.70;99.90;;;;;;5115703;28;19924;-71
2020/12/12 07:55:02;;;;;;;;;;;0.80;99.90;;;;;;5116120;28;20376;-71
2020/12/12 07:57:29;;;;;;;;;;;0.80;99.90;;;;;;5115145;28;20451;-71
2020/12/12 08:00:04;;;;;;;;;;;0.80;99.90;;;;;;5100524;28;19925;-71
2020/12/12 08:02:30;;;;;;;;;;;0.80;99.90;;;;;;5112488;28;19923;-74
2020/12/12 08:04:58;;;;;;;;;;;0.90;99.90;;;;;;5096628;28;20300;-71
2020/12/12 08:07:29;;;;;;;;;;;0.90;99.90;;;;;;5095368;28;19924;-70
2020/12/12 08:09:55;;;;;;;;;;;0.90;99.90;;;;;;5095150;28;20064;-73
2020/12/12 08:12:29;;;;;;;;;;;1.00;99.90;;;;;;5094846;28;20404;-74
2020/12/12 08:14:56;;;;;;;;;;;1.00;99.90;;;;;;5095402;28;19924;-72
2020/12/12 08:17:26;;;;;;;;;;;1.10;99.90;;;;;;5094248;28;19971;-71
2020/12/12 08:19:52;;;;;;;;;;;1.10;99.90;;;;;;5095106;28;19928;-72
2020/12/12 08:22:20;;;;;;;;;;;1.10;99.90;;;;;;5107909;28;19934;-71
2020/12/12 08:24:48;;;;;;;;;;;1.10;99.90;;;;;;5094753;28;19954;-71
2020/12/12 08:27:15;;;;;;;;;;;1.10;99.90;;;;;;5100709;28;19931;-74
2020/12/12 08:29:42;;;;;;;;;;;1.10;99.90;;;;;;5107414;28;20413;-74
2020/12/12 08:32:08;;;;;;;;;;;1.20;99.90;;;;;;5098660;28;19924;-73
2020/12/12 08:34:35;;;;;;;;;;;1.20;99.90;;;;;;5102265;28;19924;-72
2020/12/12 08:37:00;;;;;;;;;;;1.20;99.90;;;;;;5094977;28;19964;-72
2020/12/12 08:39:26;;;;;;;;;;;1.20;99.90;;;;;;5080592;28;19925;-72
2020/12/12 08:41:53;;;;;;;;;;;1.20;99.90;;;;;;5074470;28;20376;-71
2020/12/12 08:44:23;;;;;;;;;;;1.20;99.90;;;;;;5074466;28;19974;-71
2020/12/12 08:46:52;;;;;;;;;;;1.20;99.90;;;;;;5091406;28;19924;-71
2020/12/12 08:49:18;;;;;;;;;;;1.20;99.90;;;;;;5115036;28;19924;-72
2020/12/12 08:51:50;;;;;;;;;;;1.30;99.90;;;;;;5114581;28;19931;-70
2020/12/12 08:54:16;;;;;;;;;;;1.20;99.90;;;;;;5114986;28;19928;-71
2020/12/12 08:56:42;;;;;;;;;;;1.20;99.90;;;;;;5114925;28;20384;-72
2020/12/12 08:59:18;;;;;;;;;;;1.20;99.90;;;;;;5115033;28;19930;-73
2020/12/12 09:01:44;;;;;;;;;;;1.20;99.90;;;;;;5104564;28;20423;-74
2020/12/12 09:04:20;;;;;;;;;;;1.30;99.90;;;;;;5094409;28;20338;-73
2020/12/12 09:06:57;;;;;;;;;;;1.30;99.90;;;;;;5094102;28;19959;-71
2020/12/12 09:09:24;;;;;;;;;;;1.30;99.90;;;;;;5094153;28;19924;-72
2020/12/12 09:11:54;;;;;;;;;;;1.30;99.90;;;;;;5093656;28;20403;-70
2020/12/12 09:14:21;;;;;;;;;;;1.40;99.90;;;;;;5093986;28;19971;-71
2020/12/12 09:16:47;;;;;;;;;;;1.40;99.90;;;;;;5093999;28;19924;-73
2020/12/12 09:19:13;;;;;;;;;;;1.40;99.90;;;;;;5094091;28;19993;-72
2020/12/12 09:21:40;;;;;;;;;;;1.50;99.90;;;;;;5093545;28;20040;-72
2020/12/12 09:24:06;;;;;;;;;;;1.60;99.90;;;;;;5105132;28;19984;-70
2020/12/12 09:26:32;;;;;;;;;;;1.70;99.90;;;;;;5113896;28;19936;-72
2020/12/12 09:28:58;;;;;;;;;;;1.70;99.90;;;;;;5103267;28;19932;-70
2020/12/12 09:31:26;;;;;;;;;;;1.70;99.90;;;;;;5093504;28;19927;-70
2020/12/12 09:33:52;;;;;;;;;;;1.70;99.90;;;;;;5093504;28;19935;-73
2020/12/12 09:36:18;;;;;;;;;;;1.70;99.90;;;;;;5093601;28;19931;-74
2020/12/12 09:38:44;;;;;;;;;;;1.70;99.90;;;;;;5093600;28;20338;-73
2020/12/12 09:41:10;;;;;;;;;;;1.80;99.90;;;;;;5093621;28;19924;-73
2020/12/12 09:43:45;;;;;;;;;;;1.70;99.90;;;;;;5093108;28;19924;-74
2020/12/12 09:46:11;;;;;;;;;;;1.80;99.90;;;;;;5093362;28;19924;-74
2020/12/12 09:48:39;;;;;;;;;;;1.80;99.90;;;;;;5093184;28;20346;-74
2020/12/12 09:51:05;;;;;;;;;;;1.80;99.90;;;;;;5093463;28;19924;-74
2020/12/12 09:53:31;;;;;;;;;;;1.90;99.90;;;;;;5092894;28;19931;-73
2020/12/12 09:55:57;;;;;;;;;;;2.00;99.90;;;;;;5093138;28;19977;-73
2020/12/12 09:58:23;;;;;;;;;;;2.30;99.90;;;;;;5092752;28;20304;-74
2020/12/12 10:00:49;;;;;;;;;;;2.50;99.90;;;;;;5092943;28;20048;-74
2020/12/12 10:03:15;;;;;;;;;;;2.60;99.90;;;;;;5092788;28;19949;-74
2020/12/12 10:05:42;;;;;;;;;;;2.70;99.90;;;;;;5092951;28;19930;-73
2020/12/12 10:08:08;;;;;;;;;;;2.90;99.90;;;;;;5093019;28;20327;-72
2020/12/12 10:10:34;;;;;;;;;;;3.00;99.90;;;;;;5092783;28;20036;-73
2020/12/12 10:13:00;;;;;;;;;;;3.00;99.90;;;;;;5092326;28;19931;-73
2020/12/12 10:15:27;;;;;;;;;;;3.20;99.90;;;;;;5092726;28;19924;-73
2020/12/12 10:17:53;;;;;;;;;;;3.50;99.90;;;;;;5092891;28;19924;-73
2020/12/12 10:20:19;;;;;;;;;;;3.90;99.90;;;;;;5092287;28;19969;-73
2020/12/12 10:22:46;;;;;;;;;;;4.50;99.90;;;;;;5091947;28;19924;-73
2020/12/12 10:25:12;;;;;;;;;;;4.90;99.90;;;;;;5092465;28;19935;-73
2020/12/12 10:27:40;;;;;;;;;;;5.30;99.90;;;;;;5092741;28;19973;-74
2020/12/12 10:30:07;;;;;;;;;;;5.60;99.90;;;;;;5092800;28;20300;-74
2020/12/12 10:32:33;;;;;;;;;;;6.10;99.90;;;;;;5092416;28;19928;-72
2020/12/12 10:34:59;;;;;;;;;;;6.60;99.90;;;;;;5092433;28;20296;-71
2020/12/12 10:37:25;;;;;;;;;;;7.30;99.90;;;;;;5092257;28;19939;-72
2020/12/12 10:39:55;;;;;;;;;;;8.10;99.90;;;;;;5091550;28;19940;-72
2020/12/12 10:42:21;;;;;;;;;;;9.20;99.90;;;;;;5092073;28;20018;-72
2020/12/12 10:44:47;;;;;;;;;;;9.80;99.20;;;;;;5091990;28;19925;-72
2020/12/12 10:47:13;;;;;;;;;;;10.10;96.50;;;;;;5092081;28;20327;-72
2020/12/12 10:49:39;;;;;;;;;;;10.30;94.90;;;;;;5092064;28;20269;-72
2020/12/12 10:52:06;;;;;;;;;;;10.50;92.50;;;;;;5092053;28;20347;-71
2020/12/12 10:54:32;;;;;;;;;;;10.80;91.20;;;;;;5091973;28;19924;-71
2020/12/12 10:56:59;;;;;;;;;;;11.00;90.30;;;;;;5091846;28;19932;-71
2020/12/12 10:59:25;;;;;;;;;;;11.30;89.60;;;;;;5092071;28;19928;-71
2020/12/12 11:01:52;;;;;;;;;;;11.80;86.10;;;;;;5091741;28;19989;-71
2020/12/12 11:04:18;;;;;;;;;;;12.10;83.70;;;;;;5091973;28;19924;-71
2020/12/12 11:06:44;;;;;;;;;;;12.70;81.70;;;;;;5092026;28;19997;-71
2020/12/12 11:09:10;;;;;;;;;;;13.30;78.00;;;;;;5091770;28;19946;-70
2020/12/12 11:11:37;;;;;;;;;;;13.80;74.90;;;;;;5091545;28;20040;-70
2020/12/12 11:14:04;;;;;;;;;;;14.10;72.00;;;;;;5091991;28;19953;-70
2020/12/12 11:16:30;;;;;;;;;;;14.20;70.50;;;;;;5092044;28;20278;-70
2020/12/12 11:18:56;;;;;;;;;;;14.30;70.00;;;;;;5091921;28;19924;-71
2020/12/12 11:21:23;;;;;;;;;;;14.40;68.90;;;;;;5091562;28;19931;-71
2020/12/12 11:23:49;;;;;;;;;;;14.40;68.40;;;;;;5091569;28;19924;-71
2020/12/12 11:26:15;;;;;;;;;;;14.60;67.50;;;;;;5092305;28;20269;-70
2020/12/12 11:28:42;;;;;;;;;;;14.50;67.40;;;;;;5091891;28;20399;-71
2020/12/12 11:31:09;;;;;;;;;;;14.40;67.20;;;;;;5092077;28;20030;-71
2020/12/12 11:33:36;;;;;;;;;;;14.40;66.70;;;;;;5091707;28;20396;-72
2020/12/12 11:36:13;;;;;;;;;;;14.50;66.30;;;;;;5091891;28;20414;-71
2020/12/12 11:38:43;;;;;;;;;;;14.50;66.10;;;;;;5092149;28;19924;-72
2020/12/12 11:41:21;;;;;;;;;;;14.40;66.10;;;;;;5091824;28;19924;-71
2020/12/12 11:44:10;;;;;;;;;;;14.30;66.30;;;;;;5091781;28;19950;-71
2020/12/12 11:46:37;;;;;;;;;;;14.40;66.30;;;;;;5091740;28;19924;-71
2020/12/12 11:49:03;;;;;;;;;;;14.40;65.70;;;;;;5091930;28;19928;-71
2020/12/12 11:51:29;;;;;;;;;;;14.50;65.80;;;;;;5092009;28;19954;-72
2020/12/12 11:53:55;;;;;;;;;;;14.60;65.40;;;;;;5095440;28;19954;-71
2020/12/12 11:56:22;;;;;;;;;;;14.80;65.40;;;;;;5095693;28;19924;-71
2020/12/12 11:58:48;;;;;;;;;;;14.80;65.00;;;;;;5095505;28;19989;-71
2020/12/12 12:01:18;;;;;;;;;;;14.90;64.30;;;;;;5095391;28;19928;-72
2020/12/12 12:03:45;;;;;;;;;;;14.90;63.90;;;;;;5095075;28;19954;-72
2020/12/12 12:06:11;;;;;;;;;;;15.00;63.90;;;;;;5095309;28;20442;-72
2020/12/12 12:08:42;;;;;;;;;;;15.00;63.50;;;;;;5095394;28;19924;-72
2020/12/12 12:11:16;;;;;;;;;;;15.10;63.30;;;;;;5095151;28;19931;-71
2020/12/12 12:13:42;;;;;;;;;;;15.10;63.00;;;;;;5094971;28;20026;-71
2020/12/12 12:16:09;;;;;;;;;;;14.60;63.50;;;;;;5095247;28;20278;-71
2020/12/12 12:18:35;;;;;;;;;;;13.70;65.50;;;;;;5095358;28;19924;-71
2020/12/12 12:21:03;;;;;;;;;;;12.50;69.10;;;;;;5095002;28;20392;-71
2020/12/12 12:23:29;;;;;;;;;;;11.20;74.10;;;;;;5095096;28;20327;-70
2020/12/12 12:25:55;;;;;;;;;;;9.90;79.90;;;;;;5094854;28;19924;-71
2020/12/12 12:28:22;;;;;;;;;;;8.80;85.90;;;;;;5094880;28;19928;-72
2020/12/12 12:30:48;;;;;;;;;;;7.90;94.70;;;;;;5094591;28;19985;-72
2020/12/12 12:33:14;;;;;;;;;;;7.40;99.90;;;;;;5094933;28;19924;-71
2020/12/12 12:35:40;;;;;;;;;;;6.80;99.90;;;;;;5095109;28;19931;-71
2020/12/12 12:38:07;;;;;;;;;;;6.10;99.90;;;;;;5094783;28;19924;-70
2020/12/12 12:40:33;;;;;;;;;;;5.50;99.90;;;;;;5094515;28;19928;-71
2020/12/12 12:43:01;;;;;;;;;;;5.10;99.90;;;;;;5094365;28;19924;-71
2020/12/12 12:45:27;;;;;;;;;;;4.90;99.90;;;;;;5094637;28;19935;-70
2020/12/12 12:47:53;;;;;;;;;;;4.60;99.90;;;;;;5095008;28;19936;-71
2020/12/12 12:50:19;;;;;;;;;;;4.50;99.90;;;;;;5094605;28;20305;-71
2020/12/12 12:52:45;;;;;;;;;;;4.30;99.90;;;;;;5094210;28;19931;-71
2020/12/12 12:55:12;;;;;;;;;;;4.20;99.90;;;;;;5094433;28;19924;-71
2020/12/12 12:57:38;;;;;;;;;;;4.10;99.90;;;;;;5094269;28;20339;-70
2020/12/12 13:00:04;;;;;;;;;;;4.00;99.90;;;;;;5094324;28;19924;-70
2020/12/12 13:02:30;;;;;;;;;;;3.90;99.90;;;;;;5093556;28;19924;-70
2020/12/12 13:04:56;;;;;;;;;;;3.70;99.90;;;;;;5094193;28;20041;-70
2020/12/12 13:07:22;;;;;;;;;;;3.70;99.90;;;;;;5094432;28;19931;-72
2020/12/12 13:09:48;;;;;;;;;;;3.70;99.90;;;;;;5094109;28;19924;-73
2020/12/12 13:12:18;;;;;;;;;;;3.60;99.90;;;;;;5093751;28;19946;-73
2020/12/12 13:14:44;;;;;;;;;;;3.60;99.90;;;;;;5093861;28;20446;-73
2020/12/12 13:17:10;;;;;;;;;;;3.60;99.90;;;;;;5094163;28;19924;-73
2020/12/12 13:19:41;;;;;;;;;;;3.50;99.90;;;;;;5094108;28;19924;-73
2020/12/12 13:22:08;;;;;;;;;;;3.40;99.90;;;;;;5094073;28;19928;-74
2020/12/12 13:24:36;;;;;;;;;;;3.30;99.90;;;;;;5093742;28;19927;-73
2020/12/12 13:27:02;;;;;;;;;;;3.20;99.90;;;;;;5093721;28;19940;-73
2020/12/12 13:32:21;;;;;;;;;;;3.20;99.90;;;;;;5093099;28;19924;-73
2020/12/12 13:34:47;;;;;;;;;;;3.10;99.90;;;;;;5093516;28;20336;-73
2020/12/12 13:37:15;;;;;;;;;;;3.10;99.90;;;;;;5093731;28;19928;-73
2020/12/12 13:39:43;;;;;;;;;;;3.10;99.90;;;;;;5093652;28;19978;-73
2020/12/12 13:42:09;;;;;;;;;;;3.10;99.90;;;;;;5093316;28;19924;-73
2020/12/12 13:44:36;;;;;;;;;;;3.10;99.90;;;;;;5093440;28;19925;-73
2020/12/12 13:47:02;;;;;;;;;;;3.10;99.90;;;;;;5093264;28;20299;-73
2020/12/12 13:49:28;;;;;;;;;;;3.10;99.90;;;;;;5093425;28;19924;-73
2020/12/12 13:51:54;;;;;;;;;;;3.10;99.90;;;;;;5092950;28;19951;-73
2020/12/12 13:54:20;;;;;;;;;;;3.10;99.90;;;;;;5093417;28;19931;-73
2020/12/12 13:56:46;;;;;;;;;;;2.90;99.90;;;;;;5093380;28;20387;-73
2020/12/12 13:59:11;;;;;;;;;;;2.90;99.90;;;;;;5093105;28;19924;-73
2020/12/12 14:01:38;;;;;;;;;;;2.90;99.90;;;;;;5092960;28;19924;-73
2020/12/12 14:04:04;;;;;;;;;;;2.90;99.90;;;;;;5092937;28;19924;-73
2020/12/12 14:06:31;;;;;;;;;;;3.00;99.90;;;;;;5092946;28;19931;-73
2020/12/12 14:09:21;;;;;;;;;;;3.00;99.90;;;;;;5093287;28;19924;-73
2020/12/12 14:22:56;;;;;;;;;;;3.00;99.90;;;;;;5092667;28;19920;-73
2020/12/12 14:25:23;;;;;;;;;;;3.00;99.90;;;;;;5092736;28;19924;-73
2020/12/12 14:30:33;;;;;;;;;;;2.90;99.90;;;;;;5092817;28;20432;-73
2020/12/12 14:33:00;;;;;;;;;;;2.90;99.90;;;;;;5092513;28;19924;-73
2020/12/12 14:35:26;;;;;;;;;;;2.90;99.90;;;;;;5092636;28;19924;-73
2020/12/12 14:37:52;;;;;;;;;;;2.90;99.90;;;;;;5092558;28;19924;-73
2020/12/12 14:40:18;;;;;;;;;;;2.90;99.90;;;;;;5092739;28;19924;-74
2020/12/12 14:42:44;;;;;;;;;;;2.90;99.90;;;;;;5092344;28;19924;-73
2020/12/12 14:45:10;;;;;;;;;;;3.00;99.90;;;;;;5092340;28;19924;-73